sensor_id;sensor_type;location;lat;lon;timestamp;P1;durP1;ratioP1;P2;durP2;ratioP2
69783;SDS011;57054;51.978;4.498;2023-05-14T00:00:41;17.10;;;13.07;;
69783;SDS011;57054;51.978;4.498;2023-05-14T00:03:06;16.83;;;12.85;;
69783;SDS011;57054;51.978;4.498;2023-05-14T00:05:32;17.10;;;13.02;;
69783;SDS011;57054;51.978;4.498;2023-05-14T00:07:57;16.15;;;12.32;;
69783;SDS011;57054;51.978;4.498;2023-05-14T00:10:23;20.63;;;13.93;;
69783;SDS011;57054;51.978;4.498;2023-05-14T00:12:49;23.45;;;13.73;;
69783;SDS011;57054;51.978;4.498;2023-05-14T00:15:15;20.95;;;13.45;;
69783;SDS011;57054;51.978;4.498;2023-05-14T00:17:41;17.65;;;12.15;;
69783;SDS011;57054;51.978;4.498;2023-05-14T00:20:06;15.57;;;11.93;;
69783;SDS011;57054;51.978;4.498;2023-05-14T00:22:32;16.25;;;11.93;;
69783;SDS011;57054;51.978;4.498;2023-05-14T00:24:58;14.90;;;12.43;;
69783;SDS011;57054;51.978;4.498;2023-05-14T00:27:23;18.42;;;12.23;;
69783;SDS011;57054;51.978;4.498;2023-05-14T00:29:49;19.90;;;12.75;;
69783;SDS011;57054;51.978;4.498;2023-05-14T00:32:14;22.83;;;13.27;;
69783;SDS011;57054;51.978;4.498;2023-05-14T00:34:40;18.65;;;12.35;;
69783;SDS011;57054;51.978;4.498;2023-05-14T00:37:05;17.17;;;12.48;;
69783;SDS011;57054;51.978;4.498;2023-05-14T00:39:31;22.45;;;13.45;;
69783;SDS011;57054;51.978;4.498;2023-05-14T00:41:56;16.40;;;12.52;;
69783;SDS011;57054;51.978;4.498;2023-05-14T00:44:21;14.38;;;12.02;;
69783;SDS011;57054;51.978;4.498;2023-05-14T00:46:47;19.35;;;13.02;;
69783;SDS011;57054;51.978;4.498;2023-05-14T00:49:12;18.42;;;12.80;;
69783;SDS011;57054;51.978;4.498;2023-05-14T00:51:38;15.25;;;12.32;;
69783;SDS011;57054;51.978;4.498;2023-05-14T00:54:05;15.73;;;12.93;;
69783;SDS011;57054;51.978;4.498;2023-05-14T00:56:31;17.95;;;11.98;;
69783;SDS011;57054;51.978;4.498;2023-05-14T00:58:58;17.48;;;11.38;;
69783;SDS011;57054;51.978;4.498;2023-05-14T01:04:45;17.00;;;11.40;;
69783;SDS011;57054;51.978;4.498;2023-05-14T01:07:13;16.02;;;11.40;;
69783;SDS011;57054;51.978;4.498;2023-05-14T01:15:18;19.33;;;14.10;;
69783;SDS011;57054;51.978;4.498;2023-05-14T01:17:47;16.17;;;12.15;;
69783;SDS011;57054;51.978;4.498;2023-05-14T01:20:17;16.05;;;12.90;;
69783;SDS011;57054;51.978;4.498;2023-05-14T01:22:43;16.75;;;12.23;;
69783;SDS011;57054;51.978;4.498;2023-05-14T01:25:08;16.58;;;12.57;;
69783;SDS011;57054;51.978;4.498;2023-05-14T01:27:36;13.48;;;12.07;;
69783;SDS011;57054;51.978;4.498;2023-05-14T01:30:12;17.95;;;13.20;;
69783;SDS011;57054;51.978;4.498;2023-05-14T01:32:43;15.73;;;13.52;;
69783;SDS011;57054;51.978;4.498;2023-05-14T01:35:12;19.20;;;13.20;;
69783;SDS011;57054;51.978;4.498;2023-05-14T01:37:38;19.13;;;13.90;;
69783;SDS011;57054;51.978;4.498;2023-05-14T01:40:06;17.02;;;13.60;;
69783;SDS011;57054;51.978;4.498;2023-05-14T01:42:33;17.05;;;12.75;;
69783;SDS011;57054;51.978;4.498;2023-05-14T01:45:00;17.45;;;13.48;;
69783;SDS011;57054;51.978;4.498;2023-05-14T01:47:25;14.80;;;12.73;;
69783;SDS011;57054;51.978;4.498;2023-05-14T01:49:51;15.95;;;13.32;;
69783;SDS011;57054;51.978;4.498;2023-05-14T01:52:16;17.70;;;12.57;;
69783;SDS011;57054;51.978;4.498;2023-05-14T01:54:44;14.27;;;11.95;;
69783;SDS011;57054;51.978;4.498;2023-05-14T01:57:10;18.08;;;13.52;;
69783;SDS011;57054;51.978;4.498;2023-05-14T01:59:35;18.02;;;12.50;;
69783;SDS011;57054;51.978;4.498;2023-05-14T02:02:01;22.40;;;13.57;;
69783;SDS011;57054;51.978;4.498;2023-05-14T02:04:26;17.75;;;12.30;;
69783;SDS011;57054;51.978;4.498;2023-05-14T02:06:51;13.70;;;11.90;;
69783;SDS011;57054;51.978;4.498;2023-05-14T02:09:17;18.05;;;11.90;;
69783;SDS011;57054;51.978;4.498;2023-05-14T02:11:42;13.90;;;11.32;;
69783;SDS011;57054;51.978;4.498;2023-05-14T02:14:08;15.27;;;11.98;;
69783;SDS011;57054;51.978;4.498;2023-05-14T02:16:33;17.70;;;14.05;;
69783;SDS011;57054;51.978;4.498;2023-05-14T02:18:58;16.55;;;11.88;;
69783;SDS011;57054;51.978;4.498;2023-05-14T02:21:24;16.60;;;12.00;;
69783;SDS011;57054;51.978;4.498;2023-05-14T02:23:49;16.45;;;12.88;;
69783;SDS011;57054;51.978;4.498;2023-05-14T02:26:15;14.43;;;11.70;;
69783;SDS011;57054;51.978;4.498;2023-05-14T02:28:40;13.23;;;11.75;;
69783;SDS011;57054;51.978;4.498;2023-05-14T02:31:06;21.98;;;14.32;;
69783;SDS011;57054;51.978;4.498;2023-05-14T02:33:31;17.58;;;13.65;;
69783;SDS011;57054;51.978;4.498;2023-05-14T02:35:56;19.08;;;13.93;;
69783;SDS011;57054;51.978;4.498;2023-05-14T02:38:22;18.75;;;13.13;;
69783;SDS011;57054;51.978;4.498;2023-05-14T02:40:47;18.20;;;13.50;;
69783;SDS011;57054;51.978;4.498;2023-05-14T02:43:13;17.73;;;12.38;;
69783;SDS011;57054;51.978;4.498;2023-05-14T02:45:38;16.27;;;13.68;;
69783;SDS011;57054;51.978;4.498;2023-05-14T02:48:04;24.38;;;14.00;;
69783;SDS011;57054;51.978;4.498;2023-05-14T02:50:29;23.25;;;16.45;;
69783;SDS011;57054;51.978;4.498;2023-05-14T02:52:55;27.55;;;14.90;;
69783;SDS011;57054;51.978;4.498;2023-05-14T02:55:20;20.83;;;14.73;;
69783;SDS011;57054;51.978;4.498;2023-05-14T02:57:46;27.48;;;15.60;;
69783;SDS011;57054;51.978;4.498;2023-05-14T03:00:12;20.38;;;14.50;;
69783;SDS011;57054;51.978;4.498;2023-05-14T03:02:37;25.23;;;14.70;;
69783;SDS011;57054;51.978;4.498;2023-05-14T03:05:03;20.02;;;14.77;;
69783;SDS011;57054;51.978;4.498;2023-05-14T03:07:28;21.42;;;14.32;;
69783;SDS011;57054;51.978;4.498;2023-05-14T03:09:54;18.52;;;14.30;;
69783;SDS011;57054;51.978;4.498;2023-05-14T03:12:19;19.38;;;13.80;;
69783;SDS011;57054;51.978;4.498;2023-05-14T03:14:45;19.75;;;14.30;;
69783;SDS011;57054;51.978;4.498;2023-05-14T03:17:10;19.77;;;15.10;;
69783;SDS011;57054;51.978;4.498;2023-05-14T03:19:36;23.73;;;15.18;;
69783;SDS011;57054;51.978;4.498;2023-05-14T03:22:01;19.50;;;14.75;;
69783;SDS011;57054;51.978;4.498;2023-05-14T03:24:26;26.08;;;15.82;;
69783;SDS011;57054;51.978;4.498;2023-05-14T03:26:52;19.17;;;14.80;;
69783;SDS011;57054;51.978;4.498;2023-05-14T03:29:17;19.73;;;14.57;;
69783;SDS011;57054;51.978;4.498;2023-05-14T03:31:43;26.60;;;16.08;;
69783;SDS011;57054;51.978;4.498;2023-05-14T03:34:08;25.27;;;15.80;;
69783;SDS011;57054;51.978;4.498;2023-05-14T03:36:34;21.58;;;16.00;;
69783;SDS011;57054;51.978;4.498;2023-05-14T03:39:01;23.95;;;16.52;;
69783;SDS011;57054;51.978;4.498;2023-05-14T03:41:27;20.90;;;15.82;;
69783;SDS011;57054;51.978;4.498;2023-05-14T03:43:52;21.73;;;15.63;;
69783;SDS011;57054;51.978;4.498;2023-05-14T03:46:18;23.63;;;15.93;;
69783;SDS011;57054;51.978;4.498;2023-05-14T03:48:43;24.90;;;16.15;;
69783;SDS011;57054;51.978;4.498;2023-05-14T03:51:09;25.10;;;16.50;;
69783;SDS011;57054;51.978;4.498;2023-05-14T03:53:34;25.92;;;17.20;;
69783;SDS011;57054;51.978;4.498;2023-05-14T03:56:00;26.80;;;17.15;;
69783;SDS011;57054;51.978;4.498;2023-05-14T03:58:25;27.33;;;16.15;;
69783;SDS011;57054;51.978;4.498;2023-05-14T04:00:50;23.80;;;15.65;;
69783;SDS011;57054;51.978;4.498;2023-05-14T04:03:16;19.95;;;14.13;;
69783;SDS011;57054;51.978;4.498;2023-05-14T04:05:41;26.02;;;15.38;;
69783;SDS011;57054;51.978;4.498;2023-05-14T04:08:07;21.65;;;15.48;;
69783;SDS011;57054;51.978;4.498;2023-05-14T04:10:32;30.05;;;16.95;;
69783;SDS011;57054;51.978;4.498;2023-05-14T04:12:58;25.80;;;16.75;;
69783;SDS011;57054;51.978;4.498;2023-05-14T04:15:23;29.33;;;18.20;;
69783;SDS011;57054;51.978;4.498;2023-05-14T04:17:48;28.55;;;16.55;;
69783;SDS011;57054;51.978;4.498;2023-05-14T04:20:14;29.05;;;16.67;;
69783;SDS011;57054;51.978;4.498;2023-05-14T04:22:39;28.90;;;17.23;;
69783;SDS011;57054;51.978;4.498;2023-05-14T04:25:05;23.17;;;16.42;;
69783;SDS011;57054;51.978;4.498;2023-05-14T04:27:31;24.15;;;16.40;;
69783;SDS011;57054;51.978;4.498;2023-05-14T04:29:57;29.55;;;17.30;;
69783;SDS011;57054;51.978;4.498;2023-05-14T04:32:23;22.02;;;16.10;;
69783;SDS011;57054;51.978;4.498;2023-05-14T04:34:48;21.95;;;16.55;;
69783;SDS011;57054;51.978;4.498;2023-05-14T04:37:14;22.42;;;16.48;;
69783;SDS011;57054;51.978;4.498;2023-05-14T04:39:39;22.48;;;15.93;;
69783;SDS011;57054;51.978;4.498;2023-05-14T04:42:05;25.27;;;17.35;;
69783;SDS011;57054;51.978;4.498;2023-05-14T04:44:32;27.67;;;15.65;;
69783;SDS011;57054;51.978;4.498;2023-05-14T04:46:58;27.50;;;16.23;;
69783;SDS011;57054;51.978;4.498;2023-05-14T04:49:23;24.35;;;16.17;;
69783;SDS011;57054;51.978;4.498;2023-05-14T04:51:49;25.67;;;16.73;;
69783;SDS011;57054;51.978;4.498;2023-05-14T04:54:14;28.60;;;16.42;;
69783;SDS011;57054;51.978;4.498;2023-05-14T04:56:40;22.63;;;15.30;;
69783;SDS011;57054;51.978;4.498;2023-05-14T04:59:05;20.92;;;15.60;;
69783;SDS011;57054;51.978;4.498;2023-05-14T05:01:31;25.17;;;15.75;;
69783;SDS011;57054;51.978;4.498;2023-05-14T05:03:56;20.50;;;14.75;;
69783;SDS011;57054;51.978;4.498;2023-05-14T05:06:22;30.80;;;17.08;;
69783;SDS011;57054;51.978;4.498;2023-05-14T05:08:47;26.00;;;15.45;;
69783;SDS011;57054;51.978;4.498;2023-05-14T05:11:13;21.95;;;15.43;;
69783;SDS011;57054;51.978;4.498;2023-05-14T05:13:38;21.98;;;14.95;;
69783;SDS011;57054;51.978;4.498;2023-05-14T05:16:03;23.08;;;15.73;;
69783;SDS011;57054;51.978;4.498;2023-05-14T05:18:29;25.92;;;16.02;;
69783;SDS011;57054;51.978;4.498;2023-05-14T05:20:54;24.08;;;15.52;;
69783;SDS011;57054;51.978;4.498;2023-05-14T05:23:20;26.10;;;15.43;;
69783;SDS011;57054;51.978;4.498;2023-05-14T05:25:45;21.98;;;15.27;;
69783;SDS011;57054;51.978;4.498;2023-05-14T05:28:11;23.45;;;15.43;;
69783;SDS011;57054;51.978;4.498;2023-05-14T05:30:36;31.58;;;16.50;;
69783;SDS011;57054;51.978;4.498;2023-05-14T05:33:02;26.13;;;16.27;;
69783;SDS011;57054;51.978;4.498;2023-05-14T05:35:27;31.98;;;16.70;;
69783;SDS011;57054;51.978;4.498;2023-05-14T05:37:52;29.83;;;16.67;;
69783;SDS011;57054;51.978;4.498;2023-05-14T05:40:18;29.73;;;17.73;;
69783;SDS011;57054;51.978;4.498;2023-05-14T05:42:43;33.40;;;16.92;;
69783;SDS011;57054;51.978;4.498;2023-05-14T05:45:09;28.30;;;16.92;;
69783;SDS011;57054;51.978;4.498;2023-05-14T05:47:34;29.13;;;18.08;;
69783;SDS011;57054;51.978;4.498;2023-05-14T05:50:00;34.35;;;19.05;;
69783;SDS011;57054;51.978;4.498;2023-05-14T05:52:25;29.60;;;18.15;;
69783;SDS011;57054;51.978;4.498;2023-05-14T05:54:51;35.55;;;20.15;;
69783;SDS011;57054;51.978;4.498;2023-05-14T05:57:16;39.10;;;20.23;;
69783;SDS011;57054;51.978;4.498;2023-05-14T05:59:42;35.88;;;20.75;;
69783;SDS011;57054;51.978;4.498;2023-05-14T06:02:07;31.08;;;18.95;;
69783;SDS011;57054;51.978;4.498;2023-05-14T06:04:32;35.45;;;20.25;;
69783;SDS011;57054;51.978;4.498;2023-05-14T06:06:58;31.20;;;20.13;;
69783;SDS011;57054;51.978;4.498;2023-05-14T06:09:23;34.45;;;20.90;;
69783;SDS011;57054;51.978;4.498;2023-05-14T06:11:49;38.47;;;23.38;;
69783;SDS011;57054;51.978;4.498;2023-05-14T06:14:14;40.63;;;22.15;;
69783;SDS011;57054;51.978;4.498;2023-05-14T06:16:40;39.63;;;23.02;;
69783;SDS011;57054;51.978;4.498;2023-05-14T06:19:05;36.92;;;22.40;;
69783;SDS011;57054;51.978;4.498;2023-05-14T06:21:32;42.45;;;24.63;;
69783;SDS011;57054;51.978;4.498;2023-05-14T06:23:58;38.42;;;23.33;;
69783;SDS011;57054;51.978;4.498;2023-05-14T06:26:23;39.85;;;23.48;;
69783;SDS011;57054;51.978;4.498;2023-05-14T06:28:48;40.90;;;24.52;;
69783;SDS011;57054;51.978;4.498;2023-05-14T06:31:14;35.33;;;23.05;;
69783;SDS011;57054;51.978;4.498;2023-05-14T06:33:39;43.50;;;23.58;;
69783;SDS011;57054;51.978;4.498;2023-05-14T06:36:05;42.15;;;23.10;;
69783;SDS011;57054;51.978;4.498;2023-05-14T06:38:31;37.30;;;23.13;;
69783;SDS011;57054;51.978;4.498;2023-05-14T06:40:57;39.72;;;24.60;;
69783;SDS011;57054;51.978;4.498;2023-05-14T06:43:22;35.78;;;22.48;;
69783;SDS011;57054;51.978;4.498;2023-05-14T06:45:48;34.10;;;23.15;;
69783;SDS011;57054;51.978;4.498;2023-05-14T06:48:14;33.00;;;23.02;;
69783;SDS011;57054;51.978;4.498;2023-05-14T06:50:39;34.38;;;21.92;;
69783;SDS011;57054;51.978;4.498;2023-05-14T06:53:05;32.92;;;21.20;;
69783;SDS011;57054;51.978;4.498;2023-05-14T06:55:30;29.52;;;19.33;;
69783;SDS011;57054;51.978;4.498;2023-05-14T06:57:55;31.67;;;19.80;;
69783;SDS011;57054;51.978;4.498;2023-05-14T07:00:21;29.88;;;18.95;;
69783;SDS011;57054;51.978;4.498;2023-05-14T07:02:46;25.38;;;18.38;;
69783;SDS011;57054;51.978;4.498;2023-05-14T07:05:12;23.38;;;17.02;;
69783;SDS011;57054;51.978;4.498;2023-05-14T07:07:38;28.83;;;17.50;;
69783;SDS011;57054;51.978;4.498;2023-05-14T07:10:03;22.15;;;17.63;;
69783;SDS011;57054;51.978;4.498;2023-05-14T07:12:29;24.83;;;17.83;;
69783;SDS011;57054;51.978;4.498;2023-05-14T07:14:55;24.85;;;17.98;;
69783;SDS011;57054;51.978;4.498;2023-05-14T07:17:21;24.98;;;17.02;;
69783;SDS011;57054;51.978;4.498;2023-05-14T07:19:46;23.70;;;17.15;;
69783;SDS011;57054;51.978;4.498;2023-05-14T07:22:11;26.30;;;17.48;;
69783;SDS011;57054;51.978;4.498;2023-05-14T07:24:37;23.13;;;16.60;;
69783;SDS011;57054;51.978;4.498;2023-05-14T07:27:02;23.42;;;16.58;;
69783;SDS011;57054;51.978;4.498;2023-05-14T07:29:28;20.45;;;15.57;;
69783;SDS011;57054;51.978;4.498;2023-05-14T07:31:54;24.48;;;15.95;;
69783;SDS011;57054;51.978;4.498;2023-05-14T07:34:19;21.10;;;16.23;;
69783;SDS011;57054;51.978;4.498;2023-05-14T07:36:45;20.17;;;15.57;;
69783;SDS011;57054;51.978;4.498;2023-05-14T07:39:11;25.15;;;15.82;;
69783;SDS011;57054;51.978;4.498;2023-05-14T07:41:36;20.67;;;15.15;;
69783;SDS011;57054;51.978;4.498;2023-05-14T07:44:02;28.45;;;14.88;;
69783;SDS011;57054;51.978;4.498;2023-05-14T07:46:27;21.25;;;14.20;;
69783;SDS011;57054;51.978;4.498;2023-05-14T07:48:52;17.08;;;13.60;;
69783;SDS011;57054;51.978;4.498;2023-05-14T07:51:18;19.65;;;12.68;;
69783;SDS011;57054;51.978;4.498;2023-05-14T07:53:43;19.23;;;12.77;;
69783;SDS011;57054;51.978;4.498;2023-05-14T07:56:09;17.48;;;12.02;;
69783;SDS011;57054;51.978;4.498;2023-05-14T07:58:34;21.42;;;12.77;;
69783;SDS011;57054;51.978;4.498;2023-05-14T08:01:00;19.33;;;11.73;;
69783;SDS011;57054;51.978;4.498;2023-05-14T08:03:28;21.15;;;12.10;;
69783;SDS011;57054;51.978;4.498;2023-05-14T08:05:53;17.55;;;12.30;;
69783;SDS011;57054;51.978;4.498;2023-05-14T08:08:18;17.38;;;13.02;;
69783;SDS011;57054;51.978;4.498;2023-05-14T08:10:44;23.17;;;12.70;;
69783;SDS011;57054;51.978;4.498;2023-05-14T08:13:09;17.77;;;12.30;;
69783;SDS011;57054;51.978;4.498;2023-05-14T08:15:34;19.58;;;12.40;;
69783;SDS011;57054;51.978;4.498;2023-05-14T08:18:00;18.27;;;11.27;;
69783;SDS011;57054;51.978;4.498;2023-05-14T08:20:28;18.42;;;9.90;;
69783;SDS011;57054;51.978;4.498;2023-05-14T08:22:55;14.40;;;11.57;;
69783;SDS011;57054;51.978;4.498;2023-05-14T08:25:21;19.42;;;11.10;;
69783;SDS011;57054;51.978;4.498;2023-05-14T08:27:46;18.88;;;11.55;;
69783;SDS011;57054;51.978;4.498;2023-05-14T08:30:12;18.58;;;11.63;;
69783;SDS011;57054;51.978;4.498;2023-05-14T08:32:38;15.82;;;9.85;;
69783;SDS011;57054;51.978;4.498;2023-05-14T08:35:03;23.02;;;10.23;;
69783;SDS011;57054;51.978;4.498;2023-05-14T08:37:29;20.20;;;10.23;;
69783;SDS011;57054;51.978;4.498;2023-05-14T08:39:54;20.33;;;9.98;;
69783;SDS011;57054;51.978;4.498;2023-05-14T08:42:20;11.18;;;8.93;;
69783;SDS011;57054;51.978;4.498;2023-05-14T08:49:45;19.83;;;9.10;;
69783;SDS011;57054;51.978;4.498;2023-05-14T08:52:13;16.10;;;9.43;;
69783;SDS011;57054;51.978;4.498;2023-05-14T08:54:40;24.35;;;8.93;;
69783;SDS011;57054;51.978;4.498;2023-05-14T08:57:07;14.05;;;8.65;;
69783;SDS011;57054;51.978;4.498;2023-05-14T08:59:33;18.05;;;8.60;;
69783;SDS011;57054;51.978;4.498;2023-05-14T09:02:00;16.27;;;7.43;;
69783;SDS011;57054;51.978;4.498;2023-05-14T09:04:26;11.68;;;8.30;;
69783;SDS011;57054;51.978;4.498;2023-05-14T09:06:52;17.50;;;8.23;;
69783;SDS011;57054;51.978;4.498;2023-05-14T09:09:19;13.43;;;8.20;;
69783;SDS011;57054;51.978;4.498;2023-05-14T09:11:48;13.95;;;7.43;;
69783;SDS011;57054;51.978;4.498;2023-05-14T09:14:14;15.15;;;7.85;;
69783;SDS011;57054;51.978;4.498;2023-05-14T09:16:40;14.00;;;7.85;;
69783;SDS011;57054;51.978;4.498;2023-05-14T09:19:09;11.60;;;7.30;;
69783;SDS011;57054;51.978;4.498;2023-05-14T09:21:36;8.38;;;7.13;;
69783;SDS011;57054;51.978;4.498;2023-05-14T09:24:01;12.50;;;8.20;;
69783;SDS011;57054;51.978;4.498;2023-05-14T09:26:26;13.10;;;7.85;;
69783;SDS011;57054;51.978;4.498;2023-05-14T09:28:57;12.25;;;8.07;;
69783;SDS011;57054;51.978;4.498;2023-05-14T09:31:27;12.07;;;8.00;;
69783;SDS011;57054;51.978;4.498;2023-05-14T09:33:54;15.00;;;8.45;;
69783;SDS011;57054;51.978;4.498;2023-05-14T09:36:20;10.85;;;8.18;;
69783;SDS011;57054;51.978;4.498;2023-05-14T09:38:45;11.25;;;8.18;;
69783;SDS011;57054;51.978;4.498;2023-05-14T09:41:11;14.75;;;8.07;;
69783;SDS011;57054;51.978;4.498;2023-05-14T09:43:36;18.58;;;8.43;;
69783;SDS011;57054;51.978;4.498;2023-05-14T09:46:02;11.23;;;7.57;;
69783;SDS011;57054;51.978;4.498;2023-05-14T09:48:27;15.27;;;7.53;;
69783;SDS011;57054;51.978;4.498;2023-05-14T09:50:53;18.75;;;7.65;;
69783;SDS011;57054;51.978;4.498;2023-05-14T09:53:19;17.55;;;7.80;;
69783;SDS011;57054;51.978;4.498;2023-05-14T09:55:44;12.95;;;7.57;;
69783;SDS011;57054;51.978;4.498;2023-05-14T09:58:10;12.13;;;7.30;;
69783;SDS011;57054;51.978;4.498;2023-05-14T10:00:38;13.23;;;7.40;;
69783;SDS011;57054;51.978;4.498;2023-05-14T10:03:04;13.20;;;7.13;;
69783;SDS011;57054;51.978;4.498;2023-05-14T10:05:34;12.63;;;6.95;;
69783;SDS011;57054;51.978;4.498;2023-05-14T10:08:02;12.30;;;7.60;;
69783;SDS011;57054;51.978;4.498;2023-05-14T10:10:32;12.52;;;7.13;;
69783;SDS011;57054;51.978;4.498;2023-05-14T10:13:03;14.65;;;7.70;;
69783;SDS011;57054;51.978;4.498;2023-05-14T10:18:16;13.00;;;7.85;;
69783;SDS011;57054;51.978;4.498;2023-05-14T10:20:47;20.05;;;7.65;;
69783;SDS011;57054;51.978;4.498;2023-05-14T10:23:17;11.38;;;7.20;;
69783;SDS011;57054;51.978;4.498;2023-05-14T10:25:43;16.17;;;8.80;;
69783;SDS011;57054;51.978;4.498;2023-05-14T10:28:09;17.45;;;8.40;;
69783;SDS011;57054;51.978;4.498;2023-05-14T10:30:38;14.35;;;8.10;;
69783;SDS011;57054;51.978;4.498;2023-05-14T10:33:11;22.27;;;9.10;;
69783;SDS011;57054;51.978;4.498;2023-05-14T10:38:16;14.27;;;7.60;;
69783;SDS011;57054;51.978;4.498;2023-05-14T10:40:42;13.70;;;7.53;;
69783;SDS011;57054;51.978;4.498;2023-05-14T10:43:07;16.02;;;8.23;;
69783;SDS011;57054;51.978;4.498;2023-05-14T10:45:35;14.13;;;8.18;;
69783;SDS011;57054;51.978;4.498;2023-05-14T10:48:00;13.45;;;8.57;;
69783;SDS011;57054;51.978;4.498;2023-05-14T10:50:26;19.77;;;8.02;;
69783;SDS011;57054;51.978;4.498;2023-05-14T10:52:52;17.88;;;8.70;;
69783;SDS011;57054;51.978;4.498;2023-05-14T10:55:19;12.52;;;7.60;;
69783;SDS011;57054;51.978;4.498;2023-05-14T10:57:46;20.33;;;8.00;;
69783;SDS011;57054;51.978;4.498;2023-05-14T11:00:12;12.82;;;7.82;;
69783;SDS011;57054;51.978;4.498;2023-05-14T11:02:39;11.32;;;8.18;;
69783;SDS011;57054;51.978;4.498;2023-05-14T11:05:06;20.50;;;8.50;;
69783;SDS011;57054;51.978;4.498;2023-05-14T11:07:35;14.30;;;9.00;;
69783;SDS011;57054;51.978;4.498;2023-05-14T11:10:05;14.48;;;8.82;;
69783;SDS011;57054;51.978;4.498;2023-05-14T11:12:33;11.38;;;7.97;;
69783;SDS011;57054;51.978;4.498;2023-05-14T11:14:59;15.07;;;7.90;;
69783;SDS011;57054;51.978;4.498;2023-05-14T11:17:27;16.00;;;9.10;;
69783;SDS011;57054;51.978;4.498;2023-05-14T11:19:54;12.95;;;8.07;;
69783;SDS011;57054;51.978;4.498;2023-05-14T11:22:20;17.70;;;8.63;;
69783;SDS011;57054;51.978;4.498;2023-05-14T11:24:45;20.17;;;9.35;;
69783;SDS011;57054;51.978;4.498;2023-05-14T11:27:11;28.23;;;11.63;;
69783;SDS011;57054;51.978;4.498;2023-05-14T11:29:36;15.45;;;8.73;;
69783;SDS011;57054;51.978;4.498;2023-05-14T11:32:05;13.80;;;8.27;;
69783;SDS011;57054;51.978;4.498;2023-05-14T11:34:31;17.05;;;8.60;;
69783;SDS011;57054;51.978;4.498;2023-05-14T11:37:01;13.15;;;7.55;;
69783;SDS011;57054;51.978;4.498;2023-05-14T11:39:28;24.92;;;10.00;;
69783;SDS011;57054;51.978;4.498;2023-05-14T11:41:53;19.02;;;8.25;;
69783;SDS011;57054;51.978;4.498;2023-05-14T11:44:19;13.50;;;7.90;;
69783;SDS011;57054;51.978;4.498;2023-05-14T11:46:54;16.77;;;8.38;;
69783;SDS011;57054;51.978;4.498;2023-05-14T11:49:23;14.80;;;8.45;;
69783;SDS011;57054;51.978;4.498;2023-05-14T11:51:55;13.07;;;7.60;;
69783;SDS011;57054;51.978;4.498;2023-05-14T11:54:23;14.93;;;7.13;;
69783;SDS011;57054;51.978;4.498;2023-05-14T11:56:50;23.33;;;7.30;;
69783;SDS011;57054;51.978;4.498;2023-05-14T11:59:16;14.43;;;8.18;;
69783;SDS011;57054;51.978;4.498;2023-05-14T12:01:43;12.75;;;7.47;;
69783;SDS011;57054;51.978;4.498;2023-05-14T12:04:11;13.95;;;6.97;;
69783;SDS011;57054;51.978;4.498;2023-05-14T12:06:37;10.90;;;6.72;;
69783;SDS011;57054;51.978;4.498;2023-05-14T12:09:04;17.80;;;6.82;;
69783;SDS011;57054;51.978;4.498;2023-05-14T12:11:30;10.48;;;6.45;;
69783;SDS011;57054;51.978;4.498;2023-05-14T12:13:57;12.23;;;7.13;;
69783;SDS011;57054;51.978;4.498;2023-05-14T12:16:28;11.48;;;6.72;;
69783;SDS011;57054;51.978;4.498;2023-05-14T12:18:58;11.30;;;7.07;;
69783;SDS011;57054;51.978;4.498;2023-05-14T12:21:26;14.68;;;6.53;;
69783;SDS011;57054;51.978;4.498;2023-05-14T12:23:57;10.75;;;6.85;;
69783;SDS011;57054;51.978;4.498;2023-05-14T12:26:26;17.05;;;6.78;;
69783;SDS011;57054;51.978;4.498;2023-05-14T12:29:01;13.93;;;7.47;;
69783;SDS011;57054;51.978;4.498;2023-05-14T12:31:30;8.32;;;5.72;;
69783;SDS011;57054;51.978;4.498;2023-05-14T12:33:57;18.65;;;7.65;;
69783;SDS011;57054;51.978;4.498;2023-05-14T12:36:24;18.42;;;6.30;;
69783;SDS011;57054;51.978;4.498;2023-05-14T12:38:49;19.05;;;7.05;;
69783;SDS011;57054;51.978;4.498;2023-05-14T12:41:20;17.60;;;7.07;;
69783;SDS011;57054;51.978;4.498;2023-05-14T12:43:46;15.63;;;6.50;;
69783;SDS011;57054;51.978;4.498;2023-05-14T12:46:12;14.73;;;6.65;;
69783;SDS011;57054;51.978;4.498;2023-05-14T12:48:38;11.55;;;6.35;;
69783;SDS011;57054;51.978;4.498;2023-05-14T12:51:03;19.92;;;6.65;;
69783;SDS011;57054;51.978;4.498;2023-05-14T12:53:29;11.20;;;6.43;;
69783;SDS011;57054;51.978;4.498;2023-05-14T12:55:54;12.40;;;6.00;;
69783;SDS011;57054;51.978;4.498;2023-05-14T12:58:20;12.02;;;6.20;;
69783;SDS011;57054;51.978;4.498;2023-05-14T13:00:45;8.10;;;5.57;;
69783;SDS011;57054;51.978;4.498;2023-05-14T13:03:10;8.75;;;5.68;;
69783;SDS011;57054;51.978;4.498;2023-05-14T13:05:36;13.52;;;6.45;;
69783;SDS011;57054;51.978;4.498;2023-05-14T13:08:01;13.95;;;5.80;;
69783;SDS011;57054;51.978;4.498;2023-05-14T13:10:28;17.10;;;6.15;;
69783;SDS011;57054;51.978;4.498;2023-05-14T13:12:53;12.82;;;7.20;;
69783;SDS011;57054;51.978;4.498;2023-05-14T13:15:20;14.75;;;6.45;;
69783;SDS011;57054;51.978;4.498;2023-05-14T13:17:46;15.70;;;6.95;;
69783;SDS011;57054;51.978;4.498;2023-05-14T13:20:11;10.60;;;6.20;;
69783;SDS011;57054;51.978;4.498;2023-05-14T13:22:37;14.98;;;6.72;;
69783;SDS011;57054;51.978;4.498;2023-05-14T13:25:02;14.20;;;6.07;;
69783;SDS011;57054;51.978;4.498;2023-05-14T13:27:28;12.80;;;7.32;;
69783;SDS011;57054;51.978;4.498;2023-05-14T13:29:54;12.77;;;6.65;;
69783;SDS011;57054;51.978;4.498;2023-05-14T13:32:20;19.20;;;5.72;;
69783;SDS011;57054;51.978;4.498;2023-05-14T13:34:46;13.90;;;6.05;;
69783;SDS011;57054;51.978;4.498;2023-05-14T13:37:11;11.93;;;6.13;;
69783;SDS011;57054;51.978;4.498;2023-05-14T13:39:37;13.18;;;7.10;;
69783;SDS011;57054;51.978;4.498;2023-05-14T13:42:03;13.10;;;6.53;;
69783;SDS011;57054;51.978;4.498;2023-05-14T13:44:29;15.18;;;6.47;;
69783;SDS011;57054;51.978;4.498;2023-05-14T13:46:54;18.25;;;6.68;;
69783;SDS011;57054;51.978;4.498;2023-05-14T13:49:19;10.65;;;5.35;;
69783;SDS011;57054;51.978;4.498;2023-05-14T13:51:45;12.93;;;6.15;;
69783;SDS011;57054;51.978;4.498;2023-05-14T13:54:10;16.15;;;7.00;;
69783;SDS011;57054;51.978;4.498;2023-05-14T13:56:36;12.98;;;6.47;;
69783;SDS011;57054;51.978;4.498;2023-05-14T13:59:01;12.80;;;5.32;;
69783;SDS011;57054;51.978;4.498;2023-05-14T14:01:27;11.55;;;5.00;;
69783;SDS011;57054;51.978;4.498;2023-05-14T14:03:54;10.98;;;5.63;;
69783;SDS011;57054;51.978;4.498;2023-05-14T14:06:20;10.30;;;5.70;;
69783;SDS011;57054;51.978;4.498;2023-05-14T14:08:45;14.30;;;5.57;;
69783;SDS011;57054;51.978;4.498;2023-05-14T14:11:10;15.52;;;5.90;;
69783;SDS011;57054;51.978;4.498;2023-05-14T14:13:37;11.63;;;5.30;;
69783;SDS011;57054;51.978;4.498;2023-05-14T14:16:04;8.85;;;5.82;;
69783;SDS011;57054;51.978;4.498;2023-05-14T14:18:30;12.98;;;7.22;;
69783;SDS011;57054;51.978;4.498;2023-05-14T14:20:55;13.63;;;6.10;;
69783;SDS011;57054;51.978;4.498;2023-05-14T14:23:21;13.18;;;6.60;;
69783;SDS011;57054;51.978;4.498;2023-05-14T14:25:46;11.40;;;5.45;;
69783;SDS011;57054;51.978;4.498;2023-05-14T14:28:12;16.30;;;6.72;;
69783;SDS011;57054;51.978;4.498;2023-05-14T14:30:37;8.52;;;5.60;;
69783;SDS011;57054;51.978;4.498;2023-05-14T14:33:03;15.15;;;6.43;;
69783;SDS011;57054;51.978;4.498;2023-05-14T14:35:28;11.07;;;5.90;;
69783;SDS011;57054;51.978;4.498;2023-05-14T14:37:54;8.55;;;5.53;;